Strona główna
METAR-TAF:

METAR-TAF

Lotnisko :

Valence, Francja

Szerokość geograficzna: 44-54-58N, Długość geograficzna: 4-58-06E, wysokość: 160 m

Aktualna obserwacja pogody

Raport powstał 28 minut temu, godzina 18:00 UTC
Wiatr 10 kt od południe
Temperatura 23°C
Wilgotność 65%
Ciśnienie 1011 hPa
Widzialność 10 km lub więcej

METAR: LFLU 251800Z AUTO 17010KT 9999 ///CB 23/16 Q1011

czas: 20:28 (18:28 UTC)


TAF: brakujący

Obserwacja i prognoza pogody dla ponad 4000 lotnisk (raport METAR i TAF).

Dostępne stacje oznaczono żółtymi i czerwonymi punktami na mapie.

Najedź kursorem aby zobaczyć nazwę stacji.

Kliknij aby zobaczyć obserwacje i prognozy pogody.

Aby zmienić mapę: kliknij na zielony przycisk z czarnym krzyżykiem, aby powiększyć; na zielony przycisk z myślnikiem, aby pomniejszyć; na zielone strzałki, aby przejść do map sąsiednich.


METAR-TAF: